Time;durP1;ratioP1;P1;durP2;ratioP2;P2;SDS_P1;SDS_P2;PMS_P1;PMS_P2;Temp;Humidity;BMP_temperature;BMP_pressure;BME280_temperature;BME280_humidity;BME280_pressure;Samples;Min_cycle;Max_cycle;Signal;HPM_P1;HPM_P2
2023/11/26 05:00:36;;;;;;;0.90;0.90;;;-0.20;99.90;;;;;;5853689;23;20266;-70
2023/11/26 05:03:04;;;;;;;1.33;0.95;;;-0.20;99.90;;;;;;4949977;28;20707;-71
2023/11/26 05:05:31;;;;;;;1.48;0.95;;;-0.20;99.90;;;;;;4950377;28;20291;-71
2023/11/26 05:07:58;;;;;;;1.45;1.45;;;-0.20;99.90;;;;;;4949666;29;20244;-71
2023/11/26 05:10:26;;;;;;;1.13;1.13;;;-0.20;99.90;;;;;;4949665;29;20280;-70
2023/11/26 05:12:53;;;;;;;1.63;1.52;;;-0.20;99.90;;;;;;4933843;29;20207;-70
2023/11/26 05:15:19;;;;;;;2.40;2.22;;;-0.20;99.90;;;;;;4932459;29;20206;-70
2023/11/26 05:17:48;;;;;;;1.30;1.17;;;-0.20;99.90;;;;;;4931727;29;20579;-70
2023/11/26 05:20:15;;;;;;;0.85;0.85;;;-0.20;99.90;;;;;;4931889;29;20309;-71
2023/11/26 05:22:41;;;;;;;0.65;0.65;;;-0.10;99.90;;;;;;4931369;29;20329;-71
2023/11/26 05:25:09;;;;;;;1.52;1.52;;;-0.10;99.90;;;;;;4932909;29;20210;-71
2023/11/26 05:27:36;;;;;;;1.10;1.00;;;-0.10;99.90;;;;;;4927979;29;20206;-70
2023/11/26 05:30:03;;;;;;;1.15;1.15;;;-0.10;99.90;;;;;;4932667;29;20210;-71
2023/11/26 05:32:30;;;;;;;1.23;1.23;;;-0.10;99.90;;;;;;4933955;29;20317;-71
2023/11/26 05:34:58;;;;;;;1.20;1.15;;;0.00;99.90;;;;;;4932520;29;20210;-71
2023/11/26 05:37:25;;;;;;;1.23;1.23;;;0.00;99.90;;;;;;4936075;29;20210;-70
2023/11/26 05:39:51;;;;;;;3.28;1.83;;;0.00;99.90;;;;;;4936948;29;20217;-70
2023/11/26 05:42:18;;;;;;;1.00;1.00;;;0.00;99.90;;;;;;4932346;29;20720;-70
2023/11/26 05:44:45;;;;;;;1.15;1.15;;;0.00;99.90;;;;;;4936887;29;20230;-70
2023/11/26 05:47:11;;;;;;;1.20;1.17;;;0.00;99.90;;;;;;4935675;29;20221;-70
2023/11/26 05:49:38;;;;;;;4.70;1.55;;;0.00;99.90;;;;;;4936200;29;20214;-70
2023/11/26 05:52:06;;;;;;;1.90;1.85;;;0.00;99.90;;;;;;4936697;29;20233;-70
2023/11/26 05:54:33;;;;;;;0.60;0.60;;;0.00;99.90;;;;;;4936636;29;20689;-70
2023/11/26 05:57:00;;;;;;;1.10;1.10;;;0.00;99.90;;;;;;4936278;29;20308;-70
2023/11/26 05:59:26;;;;;;;0.70;0.70;;;0.00;99.90;;;;;;4936423;29;20205;-70
2023/11/26 06:01:54;;;;;;;0.70;0.70;;;0.00;99.90;;;;;;4935659;29;20237;-70
2023/11/26 06:04:22;;;;;;;1.00;1.00;;;0.10;99.90;;;;;;4935657;29;20230;-70
2023/11/26 06:06:48;;;;;;;1.33;1.33;;;0.10;99.90;;;;;;4935677;29;20233;-70
2023/11/26 06:09:16;;;;;;;1.60;1.15;;;0.00;99.90;;;;;;4936135;29;20278;-70
2023/11/26 06:11:43;;;;;;;1.00;1.00;;;0.00;99.90;;;;;;4936583;29;20221;-70
2023/11/26 06:14:11;;;;;;;3.17;1.38;;;0.00;99.90;;;;;;4933138;29;20669;-70
2023/11/26 06:16:38;;;;;;;1.25;1.25;;;0.00;99.90;;;;;;4931126;29;20206;-70
2023/11/26 06:19:05;;;;;;;0.85;0.85;;;0.00;99.90;;;;;;4937043;29;20218;-70
2023/11/26 06:21:32;;;;;;;1.20;1.20;;;0.00;99.90;;;;;;4936568;29;20237;-70
2023/11/26 06:23:58;;;;;;;1.50;1.20;;;0.00;99.90;;;;;;4934398;29;20240;-70
2023/11/26 06:26:27;;;;;;;12.70;2.42;;;0.00;99.90;;;;;;4936018;29;20767;-70
2023/11/26 06:28:53;;;;;;;1.45;1.45;;;0.00;99.90;;;;;;4936120;29;20237;-70
2023/11/26 06:31:21;;;;;;;1.00;1.00;;;0.00;99.90;;;;;;4935746;29;20632;-71
2023/11/26 06:33:48;;;;;;;1.65;1.00;;;0.00;99.90;;;;;;4934601;29;20206;-71
2023/11/26 06:36:19;;;;;;;1.58;0.85;;;0.10;99.90;;;;;;4933001;29;20700;-71
2023/11/26 06:38:46;;;;;;;3.88;2.47;;;0.10;99.90;;;;;;4935144;29;20219;-71
2023/11/26 06:41:21;;;;;;;1.58;1.55;;;0.10;99.90;;;;;;4932033;29;20227;-71
2023/11/26 06:43:49;;;;;;;1.40;1.40;;;0.10;99.90;;;;;;4930618;29;20728;-71
2023/11/26 06:46:18;;;;;;;1.83;1.77;;;0.10;99.90;;;;;;4928171;29;20245;-71
2023/11/26 06:48:44;;;;;;;3.83;1.60;;;0.10;99.90;;;;;;4934464;29;20214;-71
2023/11/26 06:51:11;;;;;;;1.38;1.35;;;0.20;99.90;;;;;;4933770;29;20233;-71
2023/11/26 06:53:38;;;;;;;1.13;1.13;;;0.20;99.90;;;;;;4934551;29;20201;-72
2023/11/26 06:56:05;;;;;;;0.88;0.85;;;0.20;99.90;;;;;;4934523;29;20206;-72
2023/11/26 06:58:32;;;;;;;0.73;0.73;;;0.30;99.90;;;;;;4927134;29;20209;-71
2023/11/26 07:01:00;;;;;;;1.95;1.48;;;0.30;99.90;;;;;;4931684;29;20244;-71
2023/11/26 07:03:27;;;;;;;1.42;0.80;;;0.30;99.90;;;;;;4932383;29;20362;-71
2023/11/26 07:05:54;;;;;;;1.23;1.23;;;0.40;99.90;;;;;;4932845;29;20333;-71
2023/11/26 07:08:20;;;;;;;3.13;1.60;;;0.40;99.90;;;;;;4934141;29;20202;-71
2023/11/26 07:10:47;;;;;;;2.08;2.08;;;0.30;99.90;;;;;;4932666;29;20237;-72
2023/11/26 07:13:15;;;;;;;1.02;0.98;;;0.40;99.90;;;;;;4934461;29;20206;-72
2023/11/26 07:15:42;;;;;;;2.17;2.08;;;0.40;99.90;;;;;;4934264;29;20210;-72
2023/11/26 07:18:10;;;;;;;3.53;3.28;;;0.50;99.90;;;;;;4934902;29;20217;-71
2023/11/26 07:20:37;;;;;;;2.80;2.65;;;0.50;99.90;;;;;;4931216;29;20222;-72
2023/11/26 07:23:04;;;;;;;1.98;1.88;;;0.60;99.90;;;;;;4931920;29;20212;-72
2023/11/26 07:25:30;;;;;;;1.63;1.60;;;0.60;99.90;;;;;;4933790;29;20213;-72
2023/11/26 07:27:57;;;;;;;2.20;1.70;;;0.70;99.90;;;;;;4934462;29;20217;-72
2023/11/26 07:30:24;;;;;;;5.60;4.88;;;0.70;99.90;;;;;;4932067;29;20229;-72
2023/11/26 07:32:51;;;;;;;2.65;1.88;;;0.70;99.90;;;;;;4932682;29;20214;-72
2023/11/26 07:35:19;;;;;;;6.32;1.50;;;0.70;99.90;;;;;;4933024;29;20206;-72
2023/11/26 07:37:46;;;;;;;4.13;3.85;;;0.80;99.90;;;;;;4933363;29;20253;-72
2023/11/26 07:40:14;;;;;;;2.17;2.15;;;0.80;99.90;;;;;;4932873;29;20205;-72
2023/11/26 07:42:41;;;;;;;96.20;85.95;;;0.80;99.90;;;;;;4928552;29;20270;-72
2023/11/26 07:45:08;;;;;;;7.70;7.07;;;0.90;99.90;;;;;;4931414;29;20233;-72
2023/11/26 07:47:36;;;;;;;1.58;1.58;;;0.90;99.90;;;;;;4934994;29;20608;-72
2023/11/26 07:50:03;;;;;;;1.73;1.63;;;0.90;99.90;;;;;;4932058;29;20210;-72
2023/11/26 07:52:33;;;;;;;3.00;3.00;;;0.80;99.90;;;;;;4932386;29;20234;-72
2023/11/26 07:54:59;;;;;;;1.45;1.45;;;0.90;99.90;;;;;;4934775;29;20233;-73
2023/11/26 07:57:26;;;;;;;1.45;1.27;;;1.00;99.90;;;;;;4934823;29;20214;-73
2023/11/26 07:59:53;;;;;;;2.22;2.13;;;0.90;99.90;;;;;;4935226;29;20212;-74
2023/11/26 08:02:21;;;;;;;3.10;2.90;;;0.90;99.90;;;;;;4932264;29;20233;-71
2023/11/26 08:04:48;;;;;;;2.63;2.47;;;1.00;99.90;;;;;;4930745;29;20232;-69
2023/11/26 08:07:15;;;;;;;2.95;2.78;;;1.00;99.90;;;;;;4933090;29;21052;-70
2023/11/26 08:09:45;;;;;;;6.38;5.78;;;1.00;99.90;;;;;;4930489;29;20217;-70
2023/11/26 08:12:13;;;;;;;2.17;2.08;;;1.00;99.90;;;;;;4924640;29;20312;-69
2023/11/26 08:14:41;;;;;;;4.85;3.65;;;1.00;99.90;;;;;;4922582;29;20210;-70
2023/11/26 08:17:09;;;;;;;2.80;2.55;;;1.00;99.90;;;;;;4922960;29;20237;-70
2023/11/26 08:19:36;;;;;;;2.97;2.78;;;1.10;99.90;;;;;;4926625;29;20588;-70
2023/11/26 08:22:02;;;;;;;2.65;2.55;;;1.10;99.90;;;;;;4925997;29;20252;-71
2023/11/26 08:24:29;;;;;;;2.95;2.75;;;1.10;99.90;;;;;;4925835;29;20234;-70
2023/11/26 08:26:57;;;;;;;2.60;2.50;;;1.10;99.90;;;;;;4929457;29;20741;-70
2023/11/26 08:29:25;;;;;;;4.72;3.47;;;1.20;99.90;;;;;;4929370;29;20309;-70
2023/11/26 08:31:53;;;;;;;2.50;2.42;;;1.20;99.90;;;;;;4929289;29;20261;-70
2023/11/26 08:34:22;;;;;;;1.95;1.85;;;1.30;99.90;;;;;;4923542;29;20206;-71
2023/11/26 08:36:50;;;;;;;2.35;2.25;;;1.30;99.90;;;;;;4924077;29;20674;-70
2023/11/26 08:39:25;;;;;;;3.40;3.33;;;1.30;99.90;;;;;;4917470;29;20592;-71
2023/11/26 08:41:52;;;;;;;3.20;3.00;;;1.30;99.90;;;;;;4926544;29;20244;-70
2023/11/26 08:44:20;;;;;;;1.00;1.00;;;1.30;99.90;;;;;;4923943;29;20237;-71
2023/11/26 08:46:47;;;;;;;1.67;1.60;;;1.30;99.90;;;;;;4928973;29;20220;-72
2023/11/26 08:49:18;;;;;;;1.95;1.85;;;1.30;99.90;;;;;;4932262;29;20706;-71
2023/11/26 08:51:46;;;;;;;2.15;1.73;;;1.40;99.90;;;;;;4928086;29;20226;-71
2023/11/26 08:54:13;;;;;;;1.83;1.65;;;1.40;99.90;;;;;;4930236;29;20326;-72
2023/11/26 08:56:40;;;;;;;1.45;1.45;;;1.40;99.90;;;;;;4930538;29;20208;-72
2023/11/26 08:59:07;;;;;;;1.92;1.77;;;1.40;99.90;;;;;;4929461;29;20512;-72
2023/11/26 09:01:37;;;;;;;1.73;1.63;;;1.40;99.90;;;;;;4928082;29;20229;-72
2023/11/26 09:04:04;;;;;;;2.72;2.50;;;1.40;99.90;;;;;;4929303;29;20320;-71
2023/11/26 09:06:31;;;;;;;2.90;2.70;;;1.40;99.90;;;;;;4930696;29;20668;-71
2023/11/26 09:08:57;;;;;;;2.13;1.83;;;1.40;99.90;;;;;;4930095;29;20201;-71
2023/11/26 09:11:26;;;;;;;1.30;1.23;;;1.40;99.90;;;;;;4933836;29;20237;-72
2023/11/26 09:13:53;;;;;;;2.30;2.20;;;1.40;99.90;;;;;;4931483;29;20308;-72
2023/11/26 09:16:20;;;;;;;2.60;2.30;;;1.50;99.90;;;;;;4933433;29;20601;-72
2023/11/26 09:18:48;;;;;;;2.22;1.58;;;1.50;99.90;;;;;;4934222;29;20229;-72
2023/11/26 09:21:15;;;;;;;2.40;2.20;;;1.50;99.90;;;;;;4933028;29;20857;-71
2023/11/26 09:23:43;;;;;;;2.13;2.03;;;1.60;99.90;;;;;;4934336;29;20217;-72
2023/11/26 09:26:10;;;;;;;2.08;1.98;;;1.60;99.90;;;;;;4933621;29;20233;-72
2023/11/26 09:28:37;;;;;;;4.38;3.63;;;1.60;99.90;;;;;;4932018;29;20210;-72
2023/11/26 09:31:05;;;;;;;8.00;7.05;;;1.70;99.90;;;;;;4932717;29;20233;-71
2023/11/26 09:33:32;;;;;;;9.15;7.13;;;1.70;99.90;;;;;;4931864;29;20214;-72
2023/11/26 09:36:01;;;;;;;7.53;6.78;;;1.70;99.90;;;;;;4933219;29;20210;-72
2023/11/26 09:38:27;;;;;;;6.53;4.60;;;1.70;99.90;;;;;;4933893;29;20206;-72
2023/11/26 09:40:54;;;;;;;3.50;3.40;;;1.70;99.90;;;;;;4933327;29;20731;-72
2023/11/26 09:43:22;;;;;;;4.22;3.53;;;1.70;99.90;;;;;;4932067;29;20833;-72
2023/11/26 09:45:49;;;;;;;2.40;2.40;;;1.70;99.90;;;;;;4927379;29;20329;-72
2023/11/26 09:48:15;;;;;;;2.35;2.13;;;1.60;99.90;;;;;;4929598;29;20210;-72
2023/11/26 09:50:42;;;;;;;16.98;8.93;;;1.70;99.90;;;;;;4933806;29;20234;-72
2023/11/26 09:53:13;;;;;;;9.88;6.53;;;1.70;99.90;;;;;;4935734;29;20213;-72
2023/11/26 09:55:41;;;;;;;3.95;3.60;;;1.70;99.90;;;;;;4934082;29;20198;-73
2023/11/26 09:58:08;;;;;;;4.35;4.05;;;1.80;99.90;;;;;;4934055;29;20210;-72
2023/11/26 10:00:35;;;;;;;3.63;3.03;;;1.80;99.90;;;;;;4933981;29;20243;-72
2023/11/26 10:03:02;;;;;;;45.35;23.60;;;1.90;99.90;;;;;;4931663;29;20673;-72
2023/11/26 10:05:29;;;;;;;19.65;13.07;;;1.90;99.90;;;;;;4929574;29;20240;-72
2023/11/26 10:07:56;;;;;;;7.50;6.10;;;1.90;99.90;;;;;;4934839;29;20233;-73
2023/11/26 10:10:24;;;;;;;2.83;2.72;;;2.00;99.90;;;;;;4937572;29;20218;-72
2023/11/26 10:12:52;;;;;;;2.67;2.58;;;1.90;99.90;;;;;;4936742;29;20259;-73
2023/11/26 10:15:20;;;;;;;2.55;1.85;;;1.90;99.90;;;;;;4934170;29;20688;-74
2023/11/26 10:18:03;;;;;;;2.28;2.17;;;2.00;99.90;;;;;;4934899;29;20312;-73
2023/11/26 10:20:30;;;;;;;10.40;6.72;;;1.90;99.90;;;;;;4935276;29;20206;-73
2023/11/26 10:22:57;;;;;;;16.67;8.45;;;2.00;99.90;;;;;;4936821;29;20252;-72
2023/11/26 10:25:25;;;;;;;32.30;16.17;;;2.00;99.90;;;;;;4935188;29;20241;-72
2023/11/26 10:27:52;;;;;;;4.70;3.47;;;2.10;99.90;;;;;;4929466;29;20611;-72
2023/11/26 10:30:29;;;;;;;2.80;2.60;;;2.00;99.90;;;;;;4933936;29;20232;-72
2023/11/26 10:33:04;;;;;;;3.47;3.17;;;2.00;99.90;;;;;;4931744;29;20211;-72
2023/11/26 10:35:48;;;;;;;8.75;7.90;;;2.00;99.90;;;;;;4935309;29;20216;-71
2023/11/26 10:38:16;;;;;;;5.82;5.47;;;2.00;99.90;;;;;;4934127;29;20585;-72
2023/11/26 10:40:45;;;;;;;5.03;4.32;;;2.00;99.90;;;;;;4934547;29;20233;-72
2023/11/26 10:43:12;;;;;;;4.53;4.22;;;2.10;99.90;;;;;;4936650;29;20210;-72
2023/11/26 10:45:40;;;;;;;4.90;4.50;;;2.10;99.90;;;;;;4933894;29;20234;-73
2023/11/26 10:48:09;;;;;;;4.10;3.67;;;2.10;99.90;;;;;;4929125;29;20276;-73
2023/11/26 10:50:41;;;;;;;5.80;5.30;;;2.10;99.90;;;;;;4934169;29;20320;-71
2023/11/26 10:53:20;;;;;;;3.47;3.17;;;2.10;99.90;;;;;;4935921;29;20210;-72
2023/11/26 10:55:51;;;;;;;3.50;3.20;;;2.00;99.90;;;;;;4928969;29;20206;-72
2023/11/26 10:58:19;;;;;;;3.17;3.08;;;2.00;99.90;;;;;;4933203;29;20206;-72
2023/11/26 11:00:48;;;;;;;3.25;3.05;;;2.10;99.90;;;;;;4934442;29;20234;-72
2023/11/26 11:03:15;;;;;;;3.35;3.08;;;2.00;99.90;;;;;;4933921;29;20210;-72
2023/11/26 11:05:42;;;;;;;3.40;3.15;;;2.00;99.90;;;;;;4934095;29;20234;-71
2023/11/26 11:08:09;;;;;;;3.05;2.90;;;2.00;99.90;;;;;;4932889;29;20224;-73
2023/11/26 11:10:41;;;;;;;3.15;2.85;;;2.00;99.90;;;;;;4933648;29;20695;-72
2023/11/26 11:13:15;;;;;;;3.17;2.88;;;2.00;99.90;;;;;;4934496;29;20236;-72
2023/11/26 11:15:43;;;;;;;2.40;2.20;;;2.00;99.90;;;;;;4932884;29;20202;-71
2023/11/26 11:18:41;;;;;;;2.33;2.22;;;2.00;99.90;;;;;;4932613;29;20206;-72
2023/11/26 11:21:10;;;;;;;1.58;1.58;;;2.10;99.90;;;;;;4931599;29;20234;-72
2023/11/26 11:23:39;;;;;;;2.88;2.67;;;2.10;99.90;;;;;;4934066;29;20213;-72
2023/11/26 11:26:06;;;;;;;2.30;2.10;;;2.10;99.90;;;;;;4933406;29;20597;-72
2023/11/26 11:28:42;;;;;;;48.00;18.13;;;2.10;99.90;;;;;;4932450;29;20210;-72
2023/11/26 11:31:09;;;;;;;18.25;9.55;;;2.10;99.90;;;;;;4934340;29;20221;-71
2023/11/26 11:33:36;;;;;;;9.65;6.25;;;2.10;99.90;;;;;;4933563;29;20213;-71
2023/11/26 11:36:04;;;;;;;11.80;6.97;;;2.10;99.90;;;;;;4932523;29;20205;-72
2023/11/26 11:38:32;;;;;;;10.45;6.82;;;2.20;99.90;;;;;;4933826;29;20242;-71
2023/11/26 11:40:59;;;;;;;8.52;5.57;;;2.10;99.90;;;;;;4928486;29;20258;-71
2023/11/26 11:43:27;;;;;;;5.38;3.70;;;2.10;99.90;;;;;;4930824;29;20210;-71
2023/11/26 11:45:55;;;;;;;16.38;9.80;;;2.20;99.90;;;;;;4930318;29;20230;-73
2023/11/26 11:48:56;;;;;;;6.63;5.85;;;2.20;99.90;;;;;;4932396;29;20210;-74
2023/11/26 11:51:33;;;;;;;10.52;7.28;;;2.20;99.90;;;;;;4933974;29;20229;-72
2023/11/26 11:54:29;;;;;;;16.88;9.07;;;2.20;99.90;;;;;;4931418;29;20216;-73
2023/11/26 11:56:59;;;;;;;4.00;3.70;;;2.20;99.90;;;;;;4925021;29;20213;-71
2023/11/26 11:59:26;;;;;;;5.45;4.25;;;2.20;99.90;;;;;;4929192;29;20209;-72
2023/11/26 12:01:58;;;;;;;4.20;3.80;;;2.30;99.90;;;;;;4932365;29;20245;-72
2023/11/26 12:04:38;;;;;;;3.83;3.45;;;2.30;99.90;;;;;;4930544;29;20230;-72
2023/11/26 12:07:05;;;;;;;5.53;5.00;;;2.30;99.90;;;;;;4929244;29;20206;-73
2023/11/26 12:09:35;;;;;;;7.93;5.65;;;2.30;99.90;;;;;;4931501;29;20214;-74
2023/11/26 12:12:03;;;;;;;10.05;9.07;;;2.30;99.90;;;;;;4933145;29;20281;-76
2023/11/26 12:14:31;;;;;;;4.28;2.88;;;2.40;99.90;;;;;;4926187;29;20681;-73
2023/11/26 12:17:00;;;;;;;2.85;2.13;;;2.30;99.90;;;;;;4933865;29;20695;-73
2023/11/26 12:19:27;;;;;;;2.90;2.80;;;2.20;99.90;;;;;;4933295;29;20210;-74
2023/11/26 12:22:01;;;;;;;3.53;3.20;;;2.20;99.90;;;;;;4932268;29;20230;-72
2023/11/26 12:24:29;;;;;;;2.78;2.67;;;2.30;99.90;;;;;;4929991;29;20278;-74
2023/11/26 12:26:56;;;;;;;2.63;2.45;;;2.30;99.90;;;;;;4932684;29;20238;-71
2023/11/26 12:29:26;;;;;;;2.47;2.30;;;2.30;99.90;;;;;;4930828;29;20229;-72
2023/11/26 12:31:55;;;;;;;2.88;2.67;;;2.40;99.90;;;;;;4928235;29;20318;-73
2023/11/26 12:34:23;;;;;;;2.63;2.53;;;2.40;99.90;;;;;;4932270;29;20704;-72
2023/11/26 12:36:50;;;;;;;2.60;2.30;;;2.40;99.90;;;;;;4931873;29;20206;-72
2023/11/26 12:39:18;;;;;;;1.90;1.80;;;2.50;99.90;;;;;;4932291;29;20260;-73
2023/11/26 12:41:45;;;;;;;2.50;2.30;;;2.50;99.90;;;;;;4928701;29;20244;-72
2023/11/26 12:44:12;;;;;;;2.40;2.30;;;2.50;99.90;;;;;;4934024;29;20510;-72
2023/11/26 12:46:40;;;;;;;2.85;2.75;;;2.50;99.90;;;;;;4933130;29;20234;-73
2023/11/26 12:49:17;;;;;;;3.67;3.38;;;2.50;99.90;;;;;;4931000;29;20206;-73
2023/11/26 12:51:47;;;;;;;2.25;2.15;;;2.50;99.90;;;;;;4932871;29;20233;-71
2023/11/26 12:54:15;;;;;;;2.20;2.10;;;2.40;99.90;;;;;;4931378;29;20210;-72
2023/11/26 12:56:42;;;;;;;3.60;3.50;;;2.40;99.90;;;;;;4915055;29;20584;-74
2023/11/26 12:59:09;;;;;;;2.40;2.20;;;2.40;99.90;;;;;;4929553;29;20585;-72
2023/11/26 13:01:36;;;;;;;8.00;4.03;;;2.40;99.90;;;;;;4923971;29;20253;-72
2023/11/26 13:04:04;;;;;;;2.53;2.25;;;2.50;99.90;;;;;;4925036;29;21943;-70
2023/11/26 13:06:31;;;;;;;2.80;2.60;;;2.50;99.90;;;;;;4928804;29;20226;-73
2023/11/26 13:09:04;;;;;;;2.85;2.65;;;2.40;99.90;;;;;;4930927;29;20212;-73
2023/11/26 13:11:36;;;;;;;3.15;2.85;;;2.40;99.90;;;;;;4926535;29;20236;-70
2023/11/26 13:14:04;;;;;;;3.17;2.47;;;2.40;99.90;;;;;;4927631;29;20265;-72
2023/11/26 13:16:31;;;;;;;3.45;2.85;;;2.40;99.90;;;;;;4929246;29;20210;-74
2023/11/26 13:18:58;;;;;;;2.60;2.50;;;2.40;99.90;;;;;;4928761;29;20645;-70
2023/11/26 13:21:26;;;;;;;3.28;2.75;;;2.50;99.90;;;;;;4933934;29;20245;-72
2023/11/26 13:23:53;;;;;;;3.20;3.00;;;2.40;99.90;;;;;;4931786;29;20209;-71
2023/11/26 13:26:21;;;;;;;2.30;2.20;;;2.40;99.90;;;;;;4936247;29;20236;-72
2023/11/26 13:28:48;;;;;;;3.33;2.40;;;2.40;99.90;;;;;;4931104;29;20206;-72
2023/11/26 13:31:15;;;;;;;2.28;2.28;;;2.40;99.90;;;;;;4930019;29;20258;-72
2023/11/26 13:33:42;;;;;;;3.17;3.08;;;2.40;99.90;;;;;;4924637;29;20241;-72
2023/11/26 13:36:09;;;;;;;2.80;2.67;;;2.40;99.90;;;;;;4933014;29;20205;-72
2023/11/26 13:38:36;;;;;;;2.15;2.05;;;2.40;99.90;;;;;;4930842;29;20214;-71
2023/11/26 13:41:03;;;;;;;3.00;2.63;;;2.40;99.90;;;;;;4932395;29;20236;-71
2023/11/26 13:43:32;;;;;;;3.38;2.75;;;2.40;99.90;;;;;;4929313;29;20206;-71
2023/11/26 13:45:59;;;;;;;3.25;2.50;;;2.40;99.90;;;;;;4929325;29;20221;-73
2023/11/26 13:48:26;;;;;;;6.25;2.55;;;2.40;99.90;;;;;;4929685;29;20634;-72
2023/11/26 13:50:53;;;;;;;3.00;2.90;;;2.40;99.90;;;;;;4930711;29;20241;-70
2023/11/26 13:53:20;;;;;;;2.47;2.38;;;2.40;99.90;;;;;;4932680;29;20214;-71
2023/11/26 13:55:47;;;;;;;2.83;2.30;;;2.40;99.90;;;;;;4931504;29;20261;-71
2023/11/26 13:58:15;;;;;;;2.40;2.30;;;2.40;99.90;;;;;;4929755;29;20210;-73
2023/11/26 14:00:43;;;;;;;2.20;2.20;;;2.40;99.90;;;;;;4934377;29;20244;-72
2023/11/26 14:03:11;;;;;;;2.88;2.78;;;2.40;99.90;;;;;;4935876;29;20234;-72
2023/11/26 14:05:39;;;;;;;2.47;2.28;;;2.40;99.90;;;;;;4936032;29;20241;-71
2023/11/26 14:08:08;;;;;;;2.85;2.63;;;2.40;99.90;;;;;;4930087;29;20215;-72
2023/11/26 14:10:35;;;;;;;3.92;3.08;;;2.40;99.90;;;;;;4935856;29;20226;-73
2023/11/26 14:13:02;;;;;;;5.22;4.80;;;2.40;99.90;;;;;;4930509;29;20210;-72
2023/11/26 14:15:30;;;;;;;3.75;3.55;;;2.40;99.90;;;;;;4936220;29;20298;-72
2023/11/26 14:17:58;;;;;;;3.50;3.20;;;2.40;99.90;;;;;;4928455;29;20232;-72
2023/11/26 14:20:24;;;;;;;2.92;2.75;;;2.40;99.90;;;;;;4935509;29;20210;-73
2023/11/26 14:22:52;;;;;;;3.72;3.42;;;2.40;99.90;;;;;;4933223;29;20240;-71
2023/11/26 14:25:20;;;;;;;3.88;3.38;;;2.40;99.90;;;;;;4935582;29;20225;-70
2023/11/26 14:27:48;;;;;;;3.03;2.78;;;2.40;99.90;;;;;;4935465;29;20235;-71
2023/11/26 14:30:15;;;;;;;3.38;3.13;;;2.30;99.90;;;;;;4934619;29;20214;-72
2023/11/26 14:32:43;;;;;;;8.13;4.95;;;2.40;99.90;;;;;;4933330;29;20220;-71
2023/11/26 14:35:12;;;;;;;3.00;2.80;;;2.30;99.90;;;;;;4933670;29;20301;-71
2023/11/26 14:37:39;;;;;;;2.20;2.10;;;2.30;99.90;;;;;;4934448;29;20210;-71
2023/11/26 14:40:12;;;;;;;3.28;2.97;;;2.30;99.90;;;;;;4934328;29;20206;-69
2023/11/26 14:42:40;;;;;;;5.40;4.38;;;2.30;99.90;;;;;;4930201;29;20210;-71
2023/11/26 14:45:08;;;;;;;4.05;3.80;;;2.30;99.90;;;;;;4931601;29;20576;-71
2023/11/26 14:47:34;;;;;;;6.88;5.65;;;2.30;99.90;;;;;;4930282;29;20296;-70
2023/11/26 14:50:02;;;;;;;3.20;3.00;;;2.30;99.90;;;;;;4933166;29;20213;-71
2023/11/26 14:52:30;;;;;;;6.65;6.03;;;2.30;99.90;;;;;;4928883;29;20329;-72
2023/11/26 14:54:57;;;;;;;4.15;3.85;;;2.30;99.90;;;;;;4929606;29;20644;-70
2023/11/26 14:57:26;;;;;;;4.10;3.58;;;2.30;99.90;;;;;;4933571;29;20213;-70
2023/11/26 14:59:52;;;;;;;2.90;2.80;;;2.30;99.90;;;;;;4930656;29;20304;-69
2023/11/26 15:02:19;;;;;;;3.30;3.00;;;2.30;99.90;;;;;;4932403;29;20237;-70
2023/11/26 15:04:46;;;;;;;3.63;3.30;;;2.30;99.90;;;;;;4934661;29;20406;-71
2023/11/26 15:07:13;;;;;;;2.75;2.65;;;2.30;99.90;;;;;;4930830;29;20226;-70
2023/11/26 15:09:41;;;;;;;7.03;5.22;;;2.20;99.90;;;;;;4930033;29;20269;-70
2023/11/26 15:12:08;;;;;;;5.00;4.60;;;2.20;99.90;;;;;;4932578;29;20233;-72
2023/11/26 15:14:35;;;;;;;5.97;4.00;;;2.20;99.90;;;;;;4931399;29;20556;-70
2023/11/26 15:17:02;;;;;;;5.32;3.90;;;2.20;99.90;;;;;;4931371;29;20212;-70
2023/11/26 15:19:29;;;;;;;8.60;6.72;;;2.10;99.90;;;;;;4933039;29;20213;-72
2023/11/26 15:21:56;;;;;;;13.15;9.27;;;2.10;99.90;;;;;;4929425;29;20226;-70
2023/11/26 15:24:23;;;;;;;14.60;7.32;;;2.10;99.90;;;;;;4934313;29;20217;-70
2023/11/26 15:26:51;;;;;;;6.93;5.90;;;2.10;99.90;;;;;;4929840;29;20230;-71
2023/11/26 15:29:17;;;;;;;4.78;4.38;;;2.10;99.90;;;;;;4932005;29;20206;-71
2023/11/26 15:31:44;;;;;;;4.45;4.07;;;2.10;99.90;;;;;;4933429;29;20240;-70
2023/11/26 15:34:11;;;;;;;3.58;3.47;;;2.00;99.90;;;;;;4932316;29;20650;-70
2023/11/26 15:36:37;;;;;;;4.05;3.45;;;2.00;99.90;;;;;;4931233;29;20237;-70
2023/11/26 15:39:04;;;;;;;3.63;3.28;;;2.00;99.90;;;;;;4931343;29;20214;-72
2023/11/26 15:41:31;;;;;;;5.13;4.72;;;2.00;99.90;;;;;;4928249;29;20225;-71
2023/11/26 15:44:00;;;;;;;4.05;3.75;;;2.00;99.90;;;;;;4934526;29;20218;-72
2023/11/26 15:46:27;;;;;;;4.22;3.92;;;1.90;99.90;;;;;;4932147;29;20249;-72
2023/11/26 15:48:55;;;;;;;3.90;3.70;;;1.90;99.90;;;;;;4937769;29;20604;-72
2023/11/26 15:51:22;;;;;;;5.22;4.85;;;1.90;99.90;;;;;;4936867;29;20230;-72
2023/11/26 15:53:49;;;;;;;3.53;3.17;;;1.90;99.90;;;;;;4935934;29;20224;-72
2023/11/26 15:56:16;;;;;;;6.32;4.47;;;1.90;99.90;;;;;;4935777;29;20208;-72
2023/11/26 15:58:44;;;;;;;4.13;3.83;;;1.90;99.90;;;;;;4936134;29;20210;-72
2023/11/26 16:01:12;;;;;;;5.10;4.50;;;1.90;99.90;;;;;;4931587;29;20245;-72
2023/11/26 16:03:40;;;;;;;3.75;3.42;;;1.90;99.90;;;;;;4936390;29;20205;-72
2023/11/26 16:06:07;;;;;;;5.45;3.83;;;1.90;99.90;;;;;;4932261;29;20222;-73
2023/11/26 16:08:34;;;;;;;4.07;3.70;;;1.90;99.90;;;;;;4936692;29;20213;-72
2023/11/26 16:11:01;;;;;;;6.43;4.65;;;1.90;99.90;;;;;;4936318;29;20242;-72
2023/11/26 16:13:27;;;;;;;5.38;3.63;;;1.90;99.90;;;;;;4933170;29;20273;-72
2023/11/26 16:15:54;;;;;;;5.05;4.30;;;1.90;99.90;;;;;;4928509;29;20309;-72
2023/11/26 16:18:23;;;;;;;4.78;4.43;;;1.90;99.90;;;;;;4927195;29;20209;-74
2023/11/26 16:20:49;;;;;;;3.63;3.42;;;1.90;99.90;;;;;;4926439;29;20300;-73
2023/11/26 16:23:16;;;;;;;3.63;3.33;;;1.90;99.90;;;;;;4922780;29;20210;-73
2023/11/26 16:25:43;;;;;;;4.40;3.70;;;1.90;99.90;;;;;;4923043;29;20206;-73
2023/11/26 16:28:10;;;;;;;5.22;3.65;;;1.90;99.90;;;;;;4928553;29;20661;-72
2023/11/26 16:30:36;;;;;;;3.60;3.30;;;1.90;99.90;;;;;;4928000;29;20316;-74
2023/11/26 16:33:03;;;;;;;4.88;4.53;;;1.90;99.90;;;;;;4924128;29;20214;-74
2023/11/26 16:35:31;;;;;;;15.55;9.55;;;1.90;99.90;;;;;;4925409;29;20213;-73
2023/11/26 16:37:58;;;;;;;13.10;9.95;;;1.90;99.90;;;;;;4927238;29;20700;-74
2023/11/26 16:40:26;;;;;;;7.50;6.97;;;1.90;99.90;;;;;;4926699;29;20242;-74
2023/11/26 16:42:52;;;;;;;6.47;6.05;;;1.90;99.90;;;;;;4924621;29;20826;-72
2023/11/26 16:45:19;;;;;;;7.22;6.53;;;1.90;99.90;;;;;;4923615;29;20214;-72
2023/11/26 16:47:49;;;;;;;10.07;5.45;;;1.90;99.90;;;;;;4924416;29;20236;-71
2023/11/26 16:50:16;;;;;;;26.10;15.77;;;1.90;99.90;;;;;;4923810;29;20301;-76
2023/11/26 16:52:47;;;;;;;28.05;19.00;;;1.90;99.90;;;;;;4928999;29;20206;-72
2023/11/26 16:55:14;;;;;;;23.38;15.90;;;1.90;99.90;;;;;;4930934;29;20210;-74
2023/11/26 16:57:41;;;;;;;21.27;14.88;;;1.90;99.90;;;;;;4932008;29;20221;-72
2023/11/26 17:00:09;;;;;;;27.63;14.18;;;1.90;99.90;;;;;;4932101;29;20222;-71
2023/11/26 17:02:37;;;;;;;10.88;8.52;;;1.90;99.90;;;;;;4930272;29;20257;-73
2023/11/26 17:05:04;;;;;;;14.02;10.60;;;1.90;99.90;;;;;;4929418;29;20276;-72
2023/11/26 17:07:30;;;;;;;18.60;12.65;;;1.90;99.90;;;;;;4927320;29;20644;-72
2023/11/26 17:09:59;;;;;;;13.90;9.07;;;1.90;99.90;;;;;;4932138;29;20210;-74
2023/11/26 17:12:25;;;;;;;14.13;12.60;;;1.90;99.90;;;;;;4926668;29;20230;-72
2023/11/26 17:14:52;;;;;;;9.43;8.02;;;1.90;99.90;;;;;;4923503;29;20306;-72
2023/11/26 17:17:19;;;;;;;21.80;13.30;;;1.90;99.90;;;;;;4927474;29;20213;-72
2023/11/26 17:19:46;;;;;;;13.18;10.52;;;1.90;99.90;;;;;;4926267;29;20210;-74
2023/11/26 17:22:13;;;;;;;28.83;19.85;;;1.90;99.90;;;;;;4923134;29;20388;-73
2023/11/26 17:24:40;;;;;;;18.83;11.90;;;1.90;99.90;;;;;;4926093;29;20297;-73
2023/11/26 17:27:08;;;;;;;16.40;13.05;;;1.90;99.90;;;;;;4923814;29;20712;-74
2023/11/26 17:29:35;;;;;;;11.82;8.45;;;1.90;99.90;;;;;;4927167;29;20214;-71
2023/11/26 17:32:01;;;;;;;8.43;7.28;;;1.90;99.90;;;;;;4927520;29;20248;-72
2023/11/26 17:34:28;;;;;;;7.95;7.18;;;2.00;99.90;;;;;;4927598;29;20244;-72
2023/11/26 17:36:55;;;;;;;8.90;7.45;;;2.00;99.90;;;;;;4927051;29;20225;-72
2023/11/26 17:39:21;;;;;;;10.00;7.25;;;2.00;99.90;;;;;;4928658;29;20213;-73
2023/11/26 17:41:48;;;;;;;7.78;6.85;;;1.90;99.90;;;;;;4930327;29;20244;-73
2023/11/26 17:44:16;;;;;;;5.32;4.82;;;1.90;99.90;;;;;;4928281;29;20218;-73
2023/11/26 17:46:43;;;;;;;5.30;4.90;;;1.90;99.90;;;;;;4927134;29;20232;-72
2023/11/26 17:49:10;;;;;;;5.97;5.22;;;1.90;99.90;;;;;;4930928;29;21140;-72
2023/11/26 17:51:36;;;;;;;6.43;5.95;;;1.90;99.90;;;;;;4930259;29;20226;-73
2023/11/26 17:54:04;;;;;;;8.05;4.85;;;2.00;99.90;;;;;;4931141;29;20210;-74
2023/11/26 17:56:32;;;;;;;9.45;8.07;;;2.00;99.90;;;;;;4929517;29;20210;-72
2023/11/26 17:58:59;;;;;;;11.23;7.70;;;2.00;99.90;;;;;;4934560;29;20217;-72